sensor_id;sensor_type;location;lat;lon;timestamp;pressure;altitude;pressure_sealevel;temperature;humidity
20105;BME280;10212;42.714;23.310;2023-03-22T00:09:36;94862.66;;;7.20;100.00
20105;BME280;10212;42.714;23.310;2023-03-22T00:19:37;94863.44;;;7.21;100.00
20105;BME280;10212;42.714;23.310;2023-03-22T00:29:37;94859.66;;;7.23;100.00
20105;BME280;10212;42.714;23.310;2023-03-22T00:39:37;94849.69;;;7.20;100.00
20105;BME280;10212;42.714;23.310;2023-03-22T00:49:37;94844.81;;;6.88;100.00
20105;BME280;10212;42.714;23.310;2023-03-22T00:59:38;94845.38;;;6.84;100.00
20105;BME280;10212;42.714;23.310;2023-03-22T01:09:39;94840.81;;;6.86;100.00
20105;BME280;10212;42.714;23.310;2023-03-22T01:19:39;94826.25;;;6.85;100.00
20105;BME280;10212;42.714;23.310;2023-03-22T01:29:39;94819.91;;;6.87;100.00
20105;BME280;10212;42.714;23.310;2023-03-22T01:39:40;94820.19;;;6.78;100.00
20105;BME280;10212;42.714;23.310;2023-03-22T01:49:40;94813.78;;;6.73;100.00
20105;BME280;10212;42.714;23.310;2023-03-22T01:59:40;94816.38;;;6.73;100.00
20105;BME280;10212;42.714;23.310;2023-03-22T02:09:41;94816.88;;;6.62;100.00
20105;BME280;10212;42.714;23.310;2023-03-22T02:29:50;94819.09;;;6.65;100.00
20105;BME280;10212;42.714;23.310;2023-03-22T02:39:57;94821.59;;;6.58;100.00
20105;BME280;10212;42.714;23.310;2023-03-22T02:50:13;94831.28;;;6.49;100.00
20105;BME280;10212;42.714;23.310;2023-03-22T03:00:15;94830.84;;;6.46;100.00
20105;BME280;10212;42.714;23.310;2023-03-22T03:10:17;94835.06;;;6.47;100.00
20105;BME280;10212;42.714;23.310;2023-03-22T03:41:16;94849.09;;;6.37;100.00
20105;BME280;10212;42.714;23.310;2023-03-22T03:51:18;94848.81;;;6.47;100.00
20105;BME280;10212;42.714;23.310;2023-03-22T04:01:19;94864.53;;;6.46;100.00
20105;BME280;10212;42.714;23.310;2023-03-22T04:11:19;94862.75;;;6.46;100.00
20105;BME280;10212;42.714;23.310;2023-03-22T04:21:20;94866.16;;;6.47;100.00
20105;BME280;10212;42.714;23.310;2023-03-22T04:31:20;94872.97;;;6.55;100.00
20105;BME280;10212;42.714;23.310;2023-03-22T04:41:21;94878.34;;;6.68;100.00
20105;BME280;10212;42.714;23.310;2023-03-22T04:51:21;94878.84;;;6.79;100.00
20105;BME280;10212;42.714;23.310;2023-03-22T05:01:21;94889.69;;;6.89;100.00
20105;BME280;10212;42.714;23.310;2023-03-22T05:11:21;94893.41;;;7.02;100.00
20105;BME280;10212;42.714;23.310;2023-03-22T05:21:24;94907.97;;;6.81;100.00
20105;BME280;10212;42.714;23.310;2023-03-22T05:31:27;94915.31;;;6.77;100.00
20105;BME280;10212;42.714;23.310;2023-03-22T05:41:27;94921.88;;;6.80;100.00
20105;BME280;10212;42.714;23.310;2023-03-22T05:51:37;94915.94;;;6.79;100.00
20105;BME280;10212;42.714;23.310;2023-03-22T06:01:40;94933.94;;;6.87;100.00
20105;BME280;10212;42.714;23.310;2023-03-22T06:11:40;94935.25;;;6.98;100.00
20105;BME280;10212;42.714;23.310;2023-03-22T06:21:41;94936.63;;;7.16;100.00
20105;BME280;10212;42.714;23.310;2023-03-22T06:31:41;94947.94;;;7.30;100.00
20105;BME280;10212;42.714;23.310;2023-03-22T06:41:41;94953.22;;;7.94;100.00
20105;BME280;10212;42.714;23.310;2023-03-22T06:51:41;94953.31;;;8.43;100.00
20105;BME280;10212;42.714;23.310;2023-03-22T07:01:42;94960.47;;;8.77;100.00
20105;BME280;10212;42.714;23.310;2023-03-22T07:11:42;94970.44;;;8.66;100.00
20105;BME280;10212;42.714;23.310;2023-03-22T07:21:42;94980.72;;;8.53;100.00
20105;BME280;10212;42.714;23.310;2023-03-22T07:31:43;94983.50;;;8.51;100.00
20105;BME280;10212;42.714;23.310;2023-03-22T07:41:44;94997.84;;;8.40;100.00
20105;BME280;10212;42.714;23.310;2023-03-22T07:51:45;95005.22;;;8.37;100.00
20105;BME280;10212;42.714;23.310;2023-03-22T08:01:45;95008.09;;;8.49;100.00
20105;BME280;10212;42.714;23.310;2023-03-22T08:11:45;95010.56;;;8.57;100.00
20105;BME280;10212;42.714;23.310;2023-03-22T08:21:46;95015.19;;;8.62;100.00
20105;BME280;10212;42.714;23.310;2023-03-22T08:31:46;95013.53;;;8.54;100.00
20105;BME280;10212;42.714;23.310;2023-03-22T08:41:46;95025.28;;;8.50;100.00
20105;BME280;10212;42.714;23.310;2023-03-22T08:51:46;95028.38;;;8.60;100.00
20105;BME280;10212;42.714;23.310;2023-03-22T09:01:47;95036.41;;;8.65;100.00
20105;BME280;10212;42.714;23.310;2023-03-22T09:11:47;95040.66;;;8.73;100.00
20105;BME280;10212;42.714;23.310;2023-03-22T09:21:47;95048.94;;;8.90;100.00
20105;BME280;10212;42.714;23.310;2023-03-22T09:31:48;95046.88;;;8.79;98.58
20105;BME280;10212;42.714;23.310;2023-03-22T09:41:53;95041.75;;;8.92;99.92
20105;BME280;10212;42.714;23.310;2023-03-22T09:51:55;95042.84;;;9.19;99.47
20105;BME280;10212;42.714;23.310;2023-03-22T10:01:57;95042.09;;;9.38;97.31
20105;BME280;10212;42.714;23.310;2023-03-22T10:22:06;95048.31;;;9.37;95.79
20105;BME280;10212;42.714;23.310;2023-03-22T10:32:15;95059.91;;;9.41;94.09
20105;BME280;10212;42.714;23.310;2023-03-22T10:42:18;95046.16;;;9.61;93.72
20105;BME280;10212;42.714;23.310;2023-03-22T10:52:37;95044.66;;;9.25;95.50
20105;BME280;10212;42.714;23.310;2023-03-22T11:02:46;95046.66;;;9.23;96.57
20105;BME280;10212;42.714;23.310;2023-03-22T11:12:48;95039.47;;;9.25;95.27
20105;BME280;10212;42.714;23.310;2023-03-22T11:22:48;95035.81;;;9.06;95.85
20105;BME280;10212;42.714;23.310;2023-03-22T11:32:58;95036.25;;;9.23;93.22
20105;BME280;10212;42.714;23.310;2023-03-22T11:53:06;95022.66;;;9.34;95.17
20105;BME280;10212;42.714;23.310;2023-03-22T12:03:11;95029.16;;;9.86;91.58
20105;BME280;10212;42.714;23.310;2023-03-22T12:13:22;95021.75;;;9.89;90.44
20105;BME280;10212;42.714;23.310;2023-03-22T12:23:25;95012.31;;;10.16;93.16
20105;BME280;10212;42.714;23.310;2023-03-22T12:53:52;95012.81;;;10.85;85.09
20105;BME280;10212;42.714;23.310;2023-03-22T13:03:53;95000.41;;;10.67;86.13
20105;BME280;10212;42.714;23.310;2023-03-22T13:13:56;94998.47;;;10.29;86.60
20105;BME280;10212;42.714;23.310;2023-03-22T13:34:13;94989.75;;;11.86;79.23
20105;BME280;10212;42.714;23.310;2023-03-22T13:54:25;94994.25;;;11.07;80.42
20105;BME280;10212;42.714;23.310;2023-03-22T14:14:39;94979.41;;;11.98;78.69
20105;BME280;10212;42.714;23.310;2023-03-22T14:24:41;94988.94;;;11.60;78.03
20105;BME280;10212;42.714;23.310;2023-03-22T14:34:41;94988.03;;;11.48;79.64
20105;BME280;10212;42.714;23.310;2023-03-22T14:44:53;94991.59;;;11.21;79.93
20105;BME280;10212;42.714;23.310;2023-03-22T14:54:55;94998.72;;;11.00;81.38
20105;BME280;10212;42.714;23.310;2023-03-22T15:04:58;94994.63;;;11.50;78.09
20105;BME280;10212;42.714;23.310;2023-03-22T15:14:59;94992.22;;;11.49;78.88
20105;BME280;10212;42.714;23.310;2023-03-22T15:25:01;94998.38;;;11.61;79.41
20105;BME280;10212;42.714;23.310;2023-03-22T15:35:03;94992.25;;;11.42;77.84
20105;BME280;10212;42.714;23.310;2023-03-22T15:45:20;94985.53;;;11.60;77.89
20105;BME280;10212;42.714;23.310;2023-03-22T16:05:30;95010.38;;;10.91;81.59
20105;BME280;10212;42.714;23.310;2023-03-22T16:15:32;95011.88;;;10.66;81.62
20105;BME280;10212;42.714;23.310;2023-03-22T16:25:32;95018.69;;;10.60;81.55
20105;BME280;10212;42.714;23.310;2023-03-22T16:35:33;95029.31;;;10.45;83.07
20105;BME280;10212;42.714;23.310;2023-03-22T16:45:34;95039.97;;;10.03;85.14
20105;BME280;10212;42.714;23.310;2023-03-22T16:55:34;95051.97;;;9.77;85.79
20105;BME280;10212;42.714;23.310;2023-03-22T17:05:35;95058.78;;;9.64;87.29
20105;BME280;10212;42.714;23.310;2023-03-22T17:15:37;95055.06;;;9.25;92.40
20105;BME280;10212;42.714;23.310;2023-03-22T17:25:40;95082.91;;;8.82;97.04
20105;BME280;10212;42.714;23.310;2023-03-22T17:35:41;95105.22;;;8.48;100.00
20105;BME280;10212;42.714;23.310;2023-03-22T17:45:41;95111.06;;;8.28;100.00
20105;BME280;10212;42.714;23.310;2023-03-22T17:55:42;95121.69;;;8.04;100.00
20105;BME280;10212;42.714;23.310;2023-03-22T18:05:42;95130.72;;;7.87;100.00
20105;BME280;10212;42.714;23.310;2023-03-22T18:15:42;95134.19;;;7.57;100.00
20105;BME280;10212;42.714;23.310;2023-03-22T18:25:43;95137.31;;;7.52;100.00
20105;BME280;10212;42.714;23.310;2023-03-22T18:35:48;95144.88;;;7.32;100.00
20105;BME280;10212;42.714;23.310;2023-03-22T18:45:48;95149.44;;;7.15;100.00
20105;BME280;10212;42.714;23.310;2023-03-22T18:55:51;95144.34;;;7.06;100.00
20105;BME280;10212;42.714;23.310;2023-03-22T19:05:51;95145.94;;;6.92;100.00
20105;BME280;10212;42.714;23.310;2023-03-22T19:15:52;95143.72;;;6.89;100.00
20105;BME280;10212;42.714;23.310;2023-03-22T19:25:52;95137.47;;;6.68;100.00
20105;BME280;10212;42.714;23.310;2023-03-22T19:35:53;95141.28;;;6.57;100.00
20105;BME280;10212;42.714;23.310;2023-03-22T19:45:53;95135.72;;;6.45;100.00
20105;BME280;10212;42.714;23.310;2023-03-22T19:55:54;95130.84;;;6.27;100.00
20105;BME280;10212;42.714;23.310;2023-03-22T20:06:00;95137.34;;;6.23;100.00
20105;BME280;10212;42.714;23.310;2023-03-22T20:16:01;95137.22;;;6.16;100.00
20105;BME280;10212;42.714;23.310;2023-03-22T20:26:03;95136.31;;;6.09;100.00
20105;BME280;10212;42.714;23.310;2023-03-22T20:36:04;95146.59;;;5.94;100.00
20105;BME280;10212;42.714;23.310;2023-03-22T20:46:05;95144.28;;;5.75;100.00
20105;BME280;10212;42.714;23.310;2023-03-22T20:56:08;95139.44;;;5.72;100.00
20105;BME280;10212;42.714;23.310;2023-03-22T21:06:09;95152.66;;;5.77;100.00
20105;BME280;10212;42.714;23.310;2023-03-22T21:16:11;95156.50;;;5.58;100.00
20105;BME280;10212;42.714;23.310;2023-03-22T21:26:11;95146.69;;;5.45;100.00
20105;BME280;10212;42.714;23.310;2023-03-22T21:36:12;95164.19;;;5.35;100.00
20105;BME280;10212;42.714;23.310;2023-03-22T21:46:12;95172.00;;;5.26;100.00
20105;BME280;10212;42.714;23.310;2023-03-22T21:56:12;95170.44;;;5.09;100.00
20105;BME280;10212;42.714;23.310;2023-03-22T22:06:13;95155.63;;;4.86;100.00
20105;BME280;10212;42.714;23.310;2023-03-22T22:16:13;95157.44;;;4.68;100.00
20105;BME280;10212;42.714;23.310;2023-03-22T22:26:15;95158.28;;;4.52;100.00
20105;BME280;10212;42.714;23.310;2023-03-22T22:36:16;95168.75;;;4.42;100.00
20105;BME280;10212;42.714;23.310;2023-03-22T22:46:16;95168.75;;;4.34;100.00
20105;BME280;10212;42.714;23.310;2023-03-22T22:56:17;95181.19;;;4.22;100.00
20105;BME280;10212;42.714;23.310;2023-03-22T23:06:19;95169.41;;;4.11;100.00
20105;BME280;10212;42.714;23.310;2023-03-22T23:16:21;95169.59;;;4.26;100.00
20105;BME280;10212;42.714;23.310;2023-03-22T23:26:22;95161.03;;;4.26;100.00
20105;BME280;10212;42.714;23.310;2023-03-22T23:36:23;95157.94;;;4.30;100.00
20105;BME280;10212;42.714;23.310;2023-03-22T23:46:26;95162.94;;;4.32;100.00
20105;BME280;10212;42.714;23.310;2023-03-22T23:56:27;95164.41;;;4.34;100.00
